首页
METAR-TAF:

METAR-TAF

机场 :

安尼斯敦, 阿拉巴马州, 美国

纬度: 33-35-26N, 经度: 085-50-51W, 海拔: 186米

当前天气观测

该预报发布于29分钟前的04:04 UTC
风速5节,风向南转西南
温度 13°C
湿度 94%
气压 1020 hPa
能見度: 16.1公里
多云层高于600英尺
多云层高于1700英尺
阴天层高于3400英尺

METAR: KANB 190404Z AUTO 21005KT 10SM BKN006 BKN017 OVC034 13/12 A3012 RMK AO2 T01280122

时间: 22:33 (04:33 UTC)

预报

该预报发布于4小时和53分钟前的23:40 UTC
预报有效从19日的 00点(UTC)到 19日的 24点(UTC)
风速4节,风向多变
能見度: 4.8公里
阴天层高于1300英尺
阵雨
短暂存在
从 19日的 00点(UTC)到 19日的 02点(UTC)
能見度: 3.2公里
阴天层高于800英尺
阵雨
从 19日的 0200点(UTC)
风速7节,风向西南
能見度: 9.7公里
阴天层高于1000英尺
阵雨
从 19日的 0400点(UTC)
风速8节,风向西
能見度: 10公里
阴天层高于1400英尺
附近有阵雨
从 19日的 0700点(UTC)
风速9节,风向西北
能見度: 10公里
阴天层高于6000英尺
从 19日的 1400点(UTC)
风速12节,风向西北,有时为19节阵风
能見度: 10公里
天空无云

TAF: KANB 182340Z 1900/1924 VRB04KT 3SM SHRA OVC013 TEMPO 1900/1902 2SM SHRA OVC008 FM190200 23007KT 6SM SHRA OVC010 FM190400 28008KT P6SM VCSH OVC014 FM190700 31009KT P6SM OVC060 FM191400 32012G19KT P6SM SKC

超过4000个机场的气象观测和天气预报(METAR&TAF报告)。

可查询的气象台以黄色和红色小点在地图上表示。

将鼠标移到小点上方,可查看气象台名称。

然后点击查看天气观测和预报。

如需切换地图:点击带黑十字的绿色按钮放大地图;点击带横线的绿色按钮缩小地图;或者点击绿色箭头查看邻近地区的地图。


METAR-TAF: